createdAt,value
2022-09-03T00:00:12.213Z,98236.31
2022-09-03T00:03:31.013Z,98228.22
2022-09-03T00:07:04.604Z,98225.50
2022-09-03T00:10:19.117Z,98233.06
2022-09-03T00:13:34.068Z,98224.41
2022-09-03T00:16:51.249Z,98228.25
2022-09-03T00:20:03.599Z,98209.75
2022-09-03T00:23:21.947Z,98216.28
2022-09-03T00:26:36.862Z,98217.31
2022-09-03T00:29:55.184Z,98219.50
2022-09-03T00:33:10.906Z,98215.41
2022-09-03T00:36:25.774Z,98219.44
2022-09-03T00:39:34.282Z,98222.00
2022-09-03T00:42:57.912Z,98215.41
2022-09-03T00:46:22.775Z,98211.28
2022-09-03T00:49:49.203Z,98211.16
2022-09-03T00:53:10.761Z,98207.13
2022-09-03T00:56:34.715Z,98207.94
2022-09-03T00:59:59.463Z,98209.41
2022-09-03T01:03:12.967Z,98210.78
2022-09-03T01:06:27.193Z,98203.25
2022-09-03T01:09:54.173Z,98207.94
2022-09-03T01:13:16.552Z,98210.53
2022-09-03T01:16:40.577Z,98215.22
2022-09-03T01:20:24.270Z,98216.03
2022-09-03T01:24:07.635Z,98219.09
2022-09-03T01:27:40.519Z,98222.84
2022-09-03T01:30:58.729Z,98223.56
2022-09-03T01:34:23.801Z,98225.13
2022-09-03T01:37:48.724Z,98228.34
2022-09-03T01:41:26.790Z,98222.19
2022-09-03T01:44:56.304Z,98227.06
2022-09-03T01:48:30.752Z,98217.84
2022-09-03T01:51:36.844Z,98221.03
2022-09-03T01:55:05.613Z,98219.28
2022-09-03T01:58:24.528Z,98218.00
2022-09-03T02:01:38.898Z,98222.03
2022-09-03T02:05:03.567Z,98221.28
2022-09-03T02:08:12.505Z,98225.44
2022-09-03T02:11:18.855Z,98223.06
2022-09-03T02:14:25.282Z,98229.06
2022-09-03T02:17:31.147Z,98228.69
2022-09-03T02:20:48.204Z,98223.00
2022-09-03T02:23:55.110Z,98231.53
2022-09-03T02:27:01.200Z,98224.47
2022-09-03T02:30:08.927Z,98223.88
2022-09-03T02:33:19.715Z,98227.94
2022-09-03T02:36:34.898Z,98228.16
2022-09-03T02:39:41.902Z,98218.38
2022-09-03T02:42:50.137Z,98220.09
2022-09-03T02:46:04.735Z,98220.31
2022-09-03T02:49:12.601Z,98224.28
2022-09-03T02:52:20.845Z,98233.75
2022-09-03T02:55:26.565Z,98230.91
2022-09-03T02:58:36.495Z,98237.72
2022-09-03T03:01:42.267Z,98236.09
2022-09-03T03:04:47.989Z,98228.88
2022-09-03T03:07:59.696Z,98225.53
2022-09-03T03:11:06.071Z,98227.91
2022-09-03T03:14:11.994Z,98227.91
2022-09-03T03:17:17.569Z,98233.38
2022-09-03T03:20:23.187Z,98233.88
2022-09-03T03:23:31.401Z,98236.25
2022-09-03T03:26:37.168Z,98239.28
2022-09-03T03:29:42.745Z,98239.75
2022-09-03T03:32:51.417Z,98238.25
2022-09-03T03:35:56.981Z,98222.19
2022-09-03T03:39:11.213Z,98228.97
2022-09-03T03:42:17.173Z,98221.31
2022-09-03T03:45:23.066Z,98218.81
2022-09-03T03:48:31.305Z,98213.66
2022-09-03T03:51:39.324Z,98217.19
2022-09-03T03:54:49.641Z,98210.03
2022-09-03T03:57:55.347Z,98210.03
2022-09-03T04:01:10.518Z,98217.19
2022-09-03T04:04:16.341Z,98218.66
2022-09-03T04:07:22.060Z,98219.47
2022-09-03T04:10:36.432Z,98220.78
2022-09-03T04:13:44.798Z,98235.56
2022-09-03T04:16:51.339Z,98240.84
2022-09-03T04:20:09.151Z,98228.56
2022-09-03T04:23:14.879Z,98223.25
2022-09-03T04:26:26.994Z,98232.84
2022-09-03T04:29:42.026Z,98223.97
2022-09-03T04:32:59.659Z,98234.25
2022-09-03T04:36:09.604Z,98240.34
2022-09-03T04:39:15.162Z,98238.69
2022-09-03T04:42:23.409Z,98238.63
2022-09-03T04:45:29.280Z,98244.25
2022-09-03T04:48:37.935Z,98245.44
2022-09-03T04:51:44.204Z,98256.38
2022-09-03T04:54:49.782Z,98258.25
2022-09-03T04:57:58.296Z,98258.09
2022-09-03T05:01:11.988Z,98256.09
2022-09-03T05:04:17.684Z,98253.75
2022-09-03T05:07:38.756Z,98258.09
2022-09-03T05:10:44.413Z,98268.84
2022-09-03T05:14:12.056Z,98263.09
2022-09-03T05:17:17.706Z,98244.88
2022-09-03T05:20:23.686Z,98261.31
2022-09-03T05:23:32.234Z,98255.09
2022-09-03T05:26:42.639Z,98260.91
2022-09-03T05:29:51.310Z,98259.22
2022-09-03T05:32:57.127Z,98254.28
2022-09-03T05:36:05.418Z,98250.56
2022-09-03T05:39:11.064Z,98254.44
2022-09-03T05:42:32.278Z,98262.88
2022-09-03T05:45:42.035Z,98264.06
2022-09-03T05:48:48.946Z,98268.34
2022-09-03T05:51:54.600Z,98259.06
2022-09-03T05:55:00.306Z,98267.88
2022-09-03T05:58:11.440Z,98260.59
2022-09-03T06:01:30.081Z,98259.69
2022-09-03T06:04:36.543Z,98250.94
2022-09-03T06:07:45.846Z,98260.25
2022-09-03T06:10:51.968Z,98253.81
2022-09-03T06:14:17.239Z,98251.66
2022-09-03T06:17:29.069Z,98258.94
2022-09-03T06:20:37.136Z,98261.41
2022-09-03T06:23:46.614Z,98256.31
2022-09-03T06:26:52.586Z,98253.50
2022-09-03T06:30:00.176Z,98247.66
2022-09-03T06:33:11.531Z,98247.44
2022-09-03T06:36:20.632Z,98248.84
2022-09-03T06:39:27.312Z,98245.19
2022-09-03T06:42:34.231Z,98257.31
2022-09-03T06:45:39.931Z,98256.38
2022-09-03T06:48:48.935Z,98259.94
2022-09-03T06:51:54.682Z,98272.72
2022-09-03T06:55:00.314Z,98264.13
2022-09-03T06:58:06.060Z,98277.47
2022-09-03T07:01:20.713Z,98269.72
2022-09-03T07:04:29.161Z,98286.03
2022-09-03T07:07:34.822Z,98283.06
2022-09-03T07:10:51.510Z,98285.53
2022-09-03T07:13:58.903Z,98274.06
2022-09-03T07:17:11.091Z,98273.31
2022-09-03T07:20:20.833Z,98271.72
2022-09-03T07:23:26.698Z,98264.59
2022-09-03T07:26:35.554Z,98269.19
2022-09-03T07:29:41.276Z,98269.25
2022-09-03T07:32:47.134Z,98271.63
2022-09-03T07:35:55.451Z,98267.47
2022-09-03T07:39:04.065Z,98269.88
2022-09-03T07:42:11.333Z,98274.34
2022-09-03T07:45:25.900Z,98286.69
2022-09-03T07:48:36.690Z,98286.94
2022-09-03T07:51:46.760Z,98292.09
2022-09-03T07:54:52.324Z,98289.00
2022-09-03T07:58:00.136Z,98278.81
2022-09-03T08:01:17.033Z,98289.53
2022-09-03T08:04:23.948Z,98284.34
2022-09-03T08:07:33.191Z,98283.78
2022-09-03T08:10:40.552Z,98285.81
2022-09-03T08:13:52.241Z,98287.69
2022-09-03T08:17:00.218Z,98291.75
2022-09-03T08:20:10.808Z,98292.44
2022-09-03T08:23:25.417Z,98298.53
2022-09-03T08:26:32.099Z,98288.44
2022-09-03T08:29:37.956Z,98294.72
2022-09-03T08:32:43.980Z,98298.59
2022-09-03T08:35:57.089Z,98287.03
2022-09-03T08:39:10.768Z,98281.31
2022-09-03T08:42:49.493Z,98282.41
2022-09-03T08:45:56.772Z,98281.19
2022-09-03T08:49:07.770Z,98290.25
2022-09-03T08:52:31.118Z,98287.47
2022-09-03T08:55:50.839Z,98279.00
2022-09-03T08:58:56.657Z,98288.13
2022-09-03T09:02:26.477Z,98285.84
2022-09-03T09:05:53.384Z,98283.75
2022-09-03T09:09:17.097Z,98280.44
2022-09-03T09:12:46.986Z,98280.22
2022-09-03T09:16:09.792Z,98276.47
2022-09-03T09:19:50.336Z,98293.72
2022-09-03T09:23:07.136Z,98289.72
2022-09-03T09:26:25.388Z,98288.13
2022-09-03T09:29:41.667Z,98292.81
2022-09-03T09:32:48.025Z,98290.84
2022-09-03T09:35:54.070Z,98294.75
2022-09-03T09:39:12.209Z,98302.78
2022-09-03T09:42:17.911Z,98305.09
2022-09-03T09:45:26.862Z,98298.34
2022-09-03T09:48:42.939Z,98295.91
2022-09-03T09:52:21.166Z,98297.78
2022-09-03T09:55:59.442Z,98299.03
2022-09-03T09:59:12.420Z,98308.00
2022-09-03T10:02:29.226Z,98300.13
2022-09-03T10:05:38.075Z,98296.78
2022-09-03T10:08:44.003Z,98291.41
2022-09-03T10:11:59.208Z,98302.03
2022-09-03T10:15:27.715Z,98298.66
2022-09-03T10:18:47.446Z,98299.31
2022-09-03T10:22:10.314Z,98295.00
2022-09-03T10:25:20.965Z,98301.41
2022-09-03T10:28:36.483Z,98303.34
2022-09-03T10:32:06.766Z,98291.47
2022-09-03T10:35:31.171Z,98297.34
2022-09-03T10:38:38.527Z,98297.63
2022-09-03T10:42:07.086Z,98297.50
2022-09-03T10:45:33.564Z,98293.50
2022-09-03T10:49:26.758Z,98286.31
2022-09-03T10:53:10.800Z,98274.88
2022-09-03T10:56:25.399Z,98281.06
2022-09-03T11:00:12.228Z,98278.91
2022-09-03T11:03:51.484Z,98275.66
2022-09-03T11:07:06.282Z,98269.66
2022-09-03T11:10:30.650Z,98269.00
2022-09-03T11:13:47.916Z,98263.94
2022-09-03T11:17:05.088Z,98274.53
2022-09-03T11:20:23.420Z,98259.19
2022-09-03T11:23:36.514Z,98265.41
2022-09-03T11:26:58.276Z,98263.47
2022-09-03T11:30:10.516Z,98269.25
2022-09-03T11:33:19.582Z,98251.81
2022-09-03T11:36:34.539Z,98264.31
2022-09-03T11:39:43.487Z,98258.13
2022-09-03T11:42:51.799Z,98257.00
2022-09-03T11:46:12.143Z,98247.88
2022-09-03T11:49:33.097Z,98255.06
2022-09-03T11:52:40.850Z,98251.22
2022-09-03T11:55:58.814Z,98252.66
2022-09-03T11:59:22.576Z,98248.88
2022-09-03T12:02:34.755Z,98246.91
2022-09-03T12:06:08.500Z,98246.38
2022-09-03T12:09:48.288Z,98251.50
2022-09-03T12:13:20.579Z,98245.88
2022-09-03T12:17:21.455Z,98247.91
2022-09-03T12:20:31.922Z,98254.19
2022-09-03T12:23:45.193Z,98255.00
2022-09-03T12:26:50.998Z,98254.19
2022-09-03T12:30:02.411Z,98247.91
2022-09-03T12:33:14.454Z,98232.47
2022-09-03T12:36:20.460Z,98241.22
2022-09-03T12:43:36.981Z,98228.66
2022-09-03T12:46:21.282Z,98224.47
2022-09-03T12:49:44.388Z,98229.56
2022-09-03T12:52:58.347Z,98228.41
2022-09-03T12:56:06.754Z,98225.69
2022-09-03T12:59:21.942Z,98223.25
2022-09-03T13:02:39.233Z,98225.53
2022-09-03T13:05:56.096Z,98222.81
2022-09-03T13:09:07.988Z,98218.41
2022-09-03T13:12:33.568Z,98218.41
2022-09-03T13:15:39.306Z,98216.66
2022-09-03T13:19:09.273Z,98207.69
2022-09-03T13:23:01.679Z,98211.47
2022-09-03T13:26:27.914Z,98210.69
2022-09-03T13:29:58.992Z,98215.03
2022-09-03T13:33:17.314Z,98203.19
2022-09-03T13:36:32.191Z,98208.06
2022-09-03T13:39:52.754Z,98208.50
2022-09-03T13:43:15.879Z,98193.84
2022-09-03T13:46:43.079Z,98196.16
2022-09-03T13:50:19.564Z,98202.09
2022-09-03T13:53:46.101Z,98197.88
2022-09-03T13:57:08.650Z,98205.59
2022-09-03T14:00:27.692Z,98208.81
2022-09-03T14:03:45.620Z,98204.34
2022-09-03T14:07:09.433Z,98203.06
2022-09-03T14:10:30.073Z,98201.72
2022-09-03T14:14:12.429Z,98204.78
2022-09-03T14:17:43.312Z,98195.59
2022-09-03T14:21:09.162Z,98185.88
2022-09-03T14:24:26.140Z,98183.56
2022-09-03T14:27:36.176Z,98200.38
2022-09-03T14:31:02.199Z,98192.25
2022-09-03T14:34:26.614Z,98198.13
2022-09-03T14:38:18.555Z,98186.28
2022-09-03T14:42:11.501Z,98185.09
2022-09-03T14:45:31.068Z,98186.84
2022-09-03T14:49:18.173Z,98186.97
2022-09-03T14:53:03.039Z,98180.50
2022-09-03T14:56:34.116Z,98178.66
2022-09-03T15:00:20.037Z,98172.06
2022-09-03T15:04:13.623Z,98169.31
2022-09-03T15:07:37.022Z,98166.41
2022-09-03T15:10:56.682Z,98166.28
2022-09-03T15:14:18.591Z,98162.56
2022-09-03T15:17:47.061Z,98169.59
2022-09-03T15:21:01.694Z,98167.38
2022-09-03T15:24:28.067Z,98164.00
2022-09-03T15:28:21.907Z,98169.63
2022-09-03T15:31:48.853Z,98163.50
2022-09-03T15:35:18.223Z,98167.13
2022-09-03T15:38:44.439Z,98160.59
2022-09-03T15:41:59.466Z,98166.19
2022-09-03T15:45:18.361Z,98174.41
2022-09-03T15:48:39.597Z,98166.41
2022-09-03T15:52:05.907Z,98170.16
2022-09-03T15:55:28.528Z,98169.00
2022-09-03T15:58:44.146Z,98174.81
2022-09-03T16:02:07.667Z,98177.00
2022-09-03T16:05:24.034Z,98175.97
2022-09-03T16:08:45.123Z,98176.97
2022-09-03T16:12:10.084Z,98182.38
2022-09-03T16:15:23.610Z,98188.09
2022-09-03T16:18:39.397Z,98190.06
2022-09-03T16:21:54.334Z,98198.38
2022-09-03T16:25:05.942Z,98189.94
2022-09-03T16:28:23.443Z,98186.50
2022-09-03T16:32:00.301Z,98184.19
2022-09-03T16:35:27.047Z,98196.72
2022-09-03T16:38:49.939Z,98199.78
2022-09-03T16:42:14.755Z,98204.19
2022-09-03T16:45:49.233Z,98196.28
2022-09-03T16:49:33.698Z,98197.84
2022-09-03T16:53:03.595Z,98199.31
2022-09-03T16:56:41.153Z,98194.97
2022-09-03T17:00:14.906Z,98192.59
2022-09-03T17:04:08.887Z,98193.97
2022-09-03T17:07:44.826Z,98196.81
2022-09-03T17:11:09.440Z,98193.41
2022-09-03T17:14:51.405Z,98194.28
2022-09-03T17:18:40.086Z,98198.53
2022-09-03T17:22:07.358Z,98199.03
2022-09-03T17:25:31.107Z,98188.63
2022-09-03T17:29:05.782Z,98207.88
2022-09-03T17:32:34.202Z,98212.03
2022-09-03T17:36:02.291Z,98198.88
2022-09-03T17:39:52.139Z,98207.75
2022-09-03T17:43:13.140Z,98209.59
2022-09-03T17:46:42.780Z,98214.97
2022-09-03T17:49:55.768Z,98214.16
2022-09-03T17:53:22.279Z,98220.16
2022-09-03T17:56:36.677Z,98215.44
2022-09-03T17:59:56.280Z,98223.50
2022-09-03T18:03:16.634Z,98221.03
2022-09-03T18:06:38.991Z,98225.38
2022-09-03T18:10:07.996Z,98224.34
2022-09-03T18:13:28.402Z,98228.91
2022-09-03T18:16:38.030Z,98234.06
2022-09-03T18:20:06.389Z,98232.84
2022-09-03T18:23:41.346Z,98232.81
2022-09-03T18:27:12.056Z,98236.53
2022-09-03T18:30:32.273Z,98240.03
2022-09-03T18:33:50.368Z,98236.31
2022-09-03T18:37:13.591Z,98238.16
2022-09-03T18:40:41.619Z,98239.63
2022-09-03T18:44:18.035Z,98236.94
2022-09-03T18:48:06.873Z,98236.34
2022-09-03T18:51:47.595Z,98232.41
2022-09-03T18:55:29.320Z,98229.50
2022-09-03T18:59:14.671Z,98236.50
2022-09-03T19:03:01.035Z,98237.97
2022-09-03T19:06:46.709Z,98236.53
2022-09-03T19:10:17.567Z,98243.94
2022-09-03T19:13:50.081Z,98234.88
2022-09-03T19:17:23.640Z,98240.25
2022-09-03T19:20:48.231Z,98237.34
2022-09-03T19:24:15.324Z,98241.03
2022-09-03T19:27:57.298Z,98246.16
2022-09-03T19:31:59.856Z,98245.53
2022-09-03T19:35:40.342Z,98241.38
2022-09-03T19:39:27.330Z,98238.50
2022-09-03T19:43:07.839Z,98239.34
2022-09-03T19:46:44.733Z,98233.31
2022-09-03T19:50:23.926Z,98243.84
2022-09-03T19:53:49.613Z,98247.16
2022-09-03T19:57:12.905Z,98250.44
2022-09-03T20:00:33.292Z,98253.94
2022-09-03T20:03:52.524Z,98263.56
2022-09-03T20:07:16.158Z,98249.75
2022-09-03T20:10:25.323Z,98267.69
2022-09-03T20:13:51.620Z,98262.56
2022-09-03T20:17:17.247Z,98262.97
2022-09-03T20:20:46.498Z,98271.59
2022-09-03T20:24:17.234Z,98261.88
2022-09-03T20:27:49.119Z,98252.56
2022-09-03T20:31:07.908Z,98261.88
2022-09-03T20:34:40.302Z,98263.94
2022-09-03T20:38:04.967Z,98260.19
2022-09-03T20:41:26.868Z,98257.72
2022-09-03T20:45:07.872Z,98267.63
2022-09-03T20:48:23.992Z,98276.19
2022-09-03T20:51:41.390Z,98270.84
2022-09-03T20:55:17.474Z,98273.31
2022-09-03T20:58:48.193Z,98273.25
2022-09-03T21:02:14.045Z,98279.44
2022-09-03T21:05:32.585Z,98281.47
2022-09-03T21:09:08.620Z,98277.31
2022-09-03T21:12:34.259Z,98279.38
2022-09-03T21:15:57.357Z,98290.03
2022-09-03T21:19:21.675Z,98291.75
2022-09-03T21:22:47.908Z,98281.28
2022-09-03T21:26:10.470Z,98278.16
2022-09-03T21:29:28.729Z,98279.38
2022-09-03T21:32:45.281Z,98269.41
2022-09-03T21:36:04.889Z,98277.50
2022-09-03T21:39:22.477Z,98267.66
2022-09-03T21:42:42.609Z,98271.72
2022-09-03T21:46:04.760Z,98274.75
2022-09-03T21:49:18.152Z,98278.47
2022-09-03T21:52:44.803Z,98281.78
2022-09-03T21:56:18.647Z,98275.66
2022-09-03T22:00:05.011Z,98284.00
2022-09-03T22:03:18.062Z,98286.13
2022-09-03T22:06:35.778Z,98279.63
2022-09-03T22:09:56.245Z,98278.72
2022-09-03T22:13:18.060Z,98278.25
2022-09-03T22:16:40.421Z,98283.25
2022-09-03T22:19:46.254Z,98286.91
2022-09-03T22:23:03.878Z,98283.59
2022-09-03T22:26:37.455Z,98288.28
2022-09-03T22:30:02.759Z,98284.81
2022-09-03T22:33:25.092Z,98275.06
2022-09-03T22:36:40.430Z,98281.09
2022-09-03T22:39:50.521Z,98282.03
2022-09-03T22:43:22.665Z,98279.38
2022-09-03T22:46:43.250Z,98279.59
2022-09-03T22:50:11.522Z,98286.78
2022-09-03T22:53:44.602Z,98283.06
2022-09-03T22:56:57.368Z,98285.25
2022-09-03T23:00:14.142Z,98283.47
2022-09-03T23:03:30.053Z,98283.06
2022-09-03T23:06:42.539Z,98289.09
2022-09-03T23:10:00.345Z,98286.19
2022-09-03T23:13:17.394Z,98284.88
2022-09-03T23:16:39.676Z,98281.34
2022-09-03T23:19:52.024Z,98284.13
2022-09-03T23:23:19.891Z,98282.34
2022-09-03T23:26:40.429Z,98281.97
2022-09-03T23:29:56.540Z,98274.63
2022-09-03T23:33:04.910Z,98272.31
2022-09-03T23:36:54.971Z,98285.31
2022-09-03T23:40:30.811Z,98284.13
2022-09-03T23:44:07.571Z,98285.72
2022-09-03T23:47:36.520Z,98283.69
2022-09-03T23:51:04.492Z,98283.13
2022-09-03T23:54:26.338Z,98280.84
2022-09-03T23:57:42.598Z,98271.84
